North Beach, Maryland
Current Conditions -  °F | °C
As of 2:54 PM on Thursday 23 Oct 2014 (Local Time) from KNAK Reporting Station
Overcast Overcast  
Wind Chill: 61°   Ceiling: 4600
Heat Index: 61°   Visibility: 10mi
Dew Point: 46°   Wind: 16mph
Humidity: 58%   Direction: 320°NW
Pressure: 29.82"   Gusts: NA
Location:  38.71°N, 76.53°W
Report Text: KNAK 231854Z AUTO 32014KT 10SM OVC046 16/08 A2982 RMK AO2 SLP099 T01610078
Loading
Personal Weather Stations






























Interactive Weather Map New forecast layout! Learn more

10-Day Weather Forecast

Advertisements
Track Severe Weather on mobile